Time;durP1;ratioP1;P1;durP2;ratioP2;P2;SDS_P1;SDS_P2;PMS_P1;PMS_P2;Temp;Humidity;BMP_temperature;BMP_pressure;BME280_temperature;BME280_humidity;BME280_pressure;Samples;Min_cycle;Max_cycle;Signal;HPM_P1;HPM_P2
2023/02/15 00:01:25;;;;;;;45.17;18.67;;;;;;;;;;5029838;28;20049;-79
2023/02/15 00:03:52;;;;;;;44.15;18.15;;;;;;;;;;5014058;28;20053;-79
2023/02/15 00:06:18;;;;;;;44.35;17.75;;;;;;;;;;5031338;28;20083;-79
2023/02/15 00:08:45;;;;;;;45.88;18.35;;;;;;;;;;5031342;28;20233;-79
2023/02/15 00:11:15;;;;;;;45.20;18.52;;;;;;;;;;5032300;28;20440;-80
2023/02/15 00:13:42;;;;;;;46.78;18.45;;;;;;;;;;5031308;28;20128;-79
2023/02/15 00:16:12;;;;;;;51.67;18.15;;;;;;;;;;5030642;28;20046;-79
2023/02/15 00:18:39;;;;;;;49.33;18.23;;;;;;;;;;5030200;28;20065;-78
2023/02/15 00:21:06;;;;;;;48.65;18.42;;;;;;;;;;5030075;28;20056;-79
2023/02/15 00:23:33;;;;;;;48.25;18.67;;;;;;;;;;5031376;28;20136;-79
2023/02/15 00:26:03;;;;;;;46.00;17.63;;;;;;;;;;5029890;28;20055;-79
2023/02/15 00:28:30;;;;;;;48.42;17.25;;;;;;;;;;5029602;28;20497;-77
2023/02/15 00:31:04;;;;;;;49.78;17.80;;;;;;;;;;5031950;28;20068;-80
2023/02/15 00:33:30;;;;;;;45.30;17.80;;;;;;;;;;5035434;28;20055;-80
2023/02/15 00:36:00;;;;;;;44.20;17.40;;;;;;;;;;5034866;28;20490;-79
2023/02/15 00:38:28;;;;;;;40.22;17.02;;;;;;;;;;5033269;28;20333;-79
2023/02/15 00:40:55;;;;;;;45.60;16.55;;;;;;;;;;5035724;28;20051;-79
2023/02/15 00:43:21;;;;;;;41.58;16.33;;;;;;;;;;5035520;28;20149;-77
2023/02/15 00:45:48;;;;;;;41.22;16.85;;;;;;;;;;5036252;28;20049;-80
2023/02/15 00:48:15;;;;;;;37.95;15.50;;;;;;;;;;5035819;28;20132;-79
2023/02/15 00:50:41;;;;;;;44.15;17.25;;;;;;;;;;5036316;28;20075;-80
2023/02/15 00:53:07;;;;;;;39.72;16.88;;;;;;;;;;5042712;28;20196;-79
2023/02/15 00:55:34;;;;;;;38.88;15.65;;;;;;;;;;5038259;28;20417;-79
2023/02/15 00:58:00;;;;;;;37.55;16.00;;;;;;;;;;5040983;28;20084;-79
2023/02/15 01:00:27;;;;;;;35.53;16.00;;;;;;;;;;5036369;28;20046;-80
2023/02/15 01:02:53;;;;;;;40.88;15.88;;;;;;;;;;5019683;28;20069;-80
2023/02/15 01:05:19;;;;;;;41.38;15.90;;;;;;;;;;5022656;28;20094;-79
2023/02/15 01:07:46;;;;;;;42.47;17.52;;;;;;;;;;5022616;28;20099;-81
2023/02/15 01:10:12;;;;;;;44.22;16.95;;;;;;;;;;5022302;28;20046;-80
2023/02/15 01:12:39;;;;;;;40.10;15.60;;;;;;;;;;5020600;28;20480;-80
2023/02/15 01:15:05;;;;;;;39.03;16.20;;;;;;;;;;5035385;28;20065;-80
2023/02/15 01:17:31;;;;;;;47.40;17.67;;;;;;;;;;5038473;28;20073;-80
2023/02/15 01:19:59;;;;;;;46.70;18.13;;;;;;;;;;5036501;28;20144;-80
2023/02/15 01:22:25;;;;;;;44.50;16.88;;;;;;;;;;5033424;28;20140;-79
2023/02/15 01:24:51;;;;;;;45.95;18.00;;;;;;;;;;5031585;28;20053;-80
2023/02/15 01:27:18;;;;;;;43.58;16.23;;;;;;;;;;5033518;28;20090;-79
2023/02/15 01:29:44;;;;;;;47.35;17.75;;;;;;;;;;5033354;28;20049;-79
2023/02/15 01:32:11;;;;;;;39.22;16.30;;;;;;;;;;5034257;28;20049;-80
2023/02/15 01:34:37;;;;;;;45.53;17.00;;;;;;;;;;5034287;28;20061;-80
2023/02/15 01:37:04;;;;;;;34.17;14.10;;;;;;;;;;5033838;28;20050;-79
2023/02/15 01:39:30;;;;;;;35.75;13.02;;;;;;;;;;5033864;28;20060;-80
2023/02/15 01:41:57;;;;;;;36.03;14.70;;;;;;;;;;5035786;28;20053;-79
2023/02/15 01:44:41;;;;;;;30.50;13.13;;;;;;;;;;5015924;28;20092;-79
2023/02/15 01:47:10;;;;;;;26.57;12.80;;;;;;;;;;5033320;28;20429;-79
2023/02/15 01:49:40;;;;;;;35.30;14.25;;;;;;;;;;5033558;28;20056;-80
2023/02/15 01:52:10;;;;;;;34.15;14.32;;;;;;;;;;5034385;28;20095;-79
2023/02/15 01:54:38;;;;;;;31.92;13.05;;;;;;;;;;5039531;28;20075;-78
2023/02/15 01:57:09;;;;;;;33.10;13.32;;;;;;;;;;5037914;28;20071;-80
2023/02/15 01:59:36;;;;;;;33.45;14.40;;;;;;;;;;5034694;28;20157;-80
2023/02/15 02:02:03;;;;;;;35.17;14.45;;;;;;;;;;5034421;28;20052;-79
2023/02/15 02:04:56;;;;;;;31.38;13.55;;;;;;;;;;5016086;28;20055;-79
2023/02/15 02:07:25;;;;;;;33.28;13.88;;;;;;;;;;5013318;28;20056;-81
2023/02/15 02:09:51;;;;;;;37.40;13.23;;;;;;;;;;5035461;28;20050;-80
2023/02/15 02:12:20;;;;;;;37.05;14.73;;;;;;;;;;5035803;28;20449;-80
2023/02/15 02:14:47;;;;;;;36.03;14.27;;;;;;;;;;5034551;28;20128;-80
2023/02/15 02:17:21;;;;;;;37.58;14.43;;;;;;;;;;5024069;28;20052;-79
2023/02/15 02:20:00;;;;;;;40.92;15.30;;;;;;;;;;5032065;28;20141;-79
2023/02/15 02:22:35;;;;;;;39.03;15.77;;;;;;;;;;5033502;28;20056;-78
2023/02/15 02:25:18;;;;;;;38.88;15.30;;;;;;;;;;5034477;28;20144;-79
2023/02/15 02:27:51;;;;;;;40.58;15.23;;;;;;;;;;5033246;28;20061;-79
2023/02/15 02:30:24;;;;;;;38.90;14.65;;;;;;;;;;5032572;28;20056;-79
2023/02/15 02:32:59;;;;;;;35.08;14.63;;;;;;;;;;5015509;28;20054;-78
2023/02/15 02:35:44;;;;;;;34.30;14.57;;;;;;;;;;5033086;28;20057;-78
2023/02/15 02:38:13;;;;;;;33.97;14.23;;;;;;;;;;5032361;28;20060;-78
2023/02/15 02:40:43;;;;;;;39.30;14.82;;;;;;;;;;5032923;28;20057;-79
2023/02/15 02:43:15;;;;;;;37.70;15.00;;;;;;;;;;5015819;28;20108;-80
2023/02/15 02:45:45;;;;;;;38.17;14.95;;;;;;;;;;5032462;28;20059;-81
2023/02/15 02:48:22;;;;;;;37.33;14.57;;;;;;;;;;5032464;28;20053;-79
2023/02/15 02:50:49;;;;;;;33.38;13.25;;;;;;;;;;5032065;28;20114;-79
2023/02/15 02:53:15;;;;;;;32.50;14.13;;;;;;;;;;5032651;28;20113;-80
2023/02/15 02:55:46;;;;;;;30.83;13.60;;;;;;;;;;5032533;28;20053;-81
2023/02/15 02:58:22;;;;;;;39.72;14.30;;;;;;;;;;5032720;28;20069;-80
2023/02/15 03:01:11;;;;;;;34.20;14.40;;;;;;;;;;5033747;28;20056;-80
2023/02/15 03:04:07;;;;;;;36.63;14.27;;;;;;;;;;5032815;28;20529;-80
2023/02/15 03:06:34;;;;;;;34.78;13.93;;;;;;;;;;5033455;28;20057;-80
2023/02/15 03:09:14;;;;;;;32.65;13.57;;;;;;;;;;5037372;28;20057;-78
2023/02/15 03:11:42;;;;;;;31.17;12.77;;;;;;;;;;5031800;28;20071;-80
2023/02/15 03:14:09;;;;;;;32.67;12.57;;;;;;;;;;5032894;28;20046;-78
2023/02/15 03:16:36;;;;;;;31.00;13.20;;;;;;;;;;5031920;28;20045;-78
2023/02/15 03:19:08;;;;;;;28.80;13.30;;;;;;;;;;5032797;28;20512;-79
2023/02/15 03:21:57;;;;;;;32.72;13.57;;;;;;;;;;5032824;28;20698;-79
2023/02/15 03:24:26;;;;;;;32.63;13.40;;;;;;;;;;5015104;28;20064;-79
2023/02/15 03:26:54;;;;;;;33.28;13.77;;;;;;;;;;5030966;28;20128;-79
2023/02/15 03:29:22;;;;;;;33.50;13.50;;;;;;;;;;5032001;28;20053;-80
2023/02/15 03:31:51;;;;;;;36.47;14.45;;;;;;;;;;5030472;28;20466;-80
2023/02/15 03:34:18;;;;;;;32.65;13.30;;;;;;;;;;5012437;28;20107;-79
2023/02/15 03:36:53;;;;;;;28.70;12.85;;;;;;;;;;5032224;28;20041;-80
2023/02/15 03:39:28;;;;;;;33.28;13.95;;;;;;;;;;5032785;28;20064;-77
2023/02/15 03:42:01;;;;;;;32.05;12.60;;;;;;;;;;5032777;28;20056;-80
2023/02/15 03:44:29;;;;;;;34.35;13.27;;;;;;;;;;5032887;28;20539;-79
2023/02/15 03:46:56;;;;;;;35.55;12.63;;;;;;;;;;5032994;28;20168;-80
2023/02/15 03:49:24;;;;;;;33.17;13.27;;;;;;;;;;5015217;28;20045;-80
2023/02/15 03:51:53;;;;;;;31.88;13.60;;;;;;;;;;5033763;28;20048;-80
2023/02/15 03:54:43;;;;;;;33.42;12.93;;;;;;;;;;5020185;28;20061;-78
2023/02/15 04:03:03;;;;;;;28.40;11.75;;;;;;;;;;5033280;28;20067;-79
2023/02/15 04:05:29;;;;;;;36.72;12.02;;;;;;;;;;5031429;28;20608;-81
2023/02/15 04:07:56;;;;;;;27.02;10.77;;;;;;;;;;5034555;28;20048;-80
2023/02/15 04:13:07;;;;;;;25.08;10.27;;;;;;;;;;5037191;28;20129;-79
2023/02/15 04:18:18;;;;;;;26.35;10.75;;;;;;;;;;5035303;28;20065;-79
2023/02/15 04:26:27;;;;;;;24.20;10.00;;;;;;;;;;5035786;28;20428;-80
2023/02/15 04:28:53;;;;;;;24.80;10.38;;;;;;;;;;5041122;28;20101;-80
2023/02/15 04:31:21;;;;;;;23.83;10.35;;;;;;;;;;5041285;28;20042;-80
2023/02/15 04:33:48;;;;;;;22.92;9.90;;;;;;;;;;5035577;28;20107;-79
2023/02/15 04:36:14;;;;;;;23.08;10.15;;;;;;;;;;5033334;28;20046;-78
2023/02/15 04:38:41;;;;;;;24.77;10.30;;;;;;;;;;5034165;28;20046;-80
2023/02/15 04:41:07;;;;;;;23.33;10.05;;;;;;;;;;5035132;28;20122;-80
2023/02/15 04:43:34;;;;;;;24.30;10.68;;;;;;;;;;5036372;28;20140;-81
2023/02/15 04:46:00;;;;;;;24.90;10.38;;;;;;;;;;5034682;28;20077;-81
2023/02/15 04:48:27;;;;;;;23.42;10.23;;;;;;;;;;5034353;28;20124;-79
2023/02/15 04:50:53;;;;;;;26.35;10.57;;;;;;;;;;5034264;28;20133;-79
2023/02/15 04:53:22;;;;;;;26.48;10.52;;;;;;;;;;5034339;28;20733;-80
2023/02/15 04:55:49;;;;;;;24.60;9.55;;;;;;;;;;5034702;28;20093;-79
2023/02/15 04:58:15;;;;;;;25.20;8.88;;;;;;;;;;5034357;28;20516;-80
2023/02/15 05:00:41;;;;;;;23.90;10.23;;;;;;;;;;5016211;28;20056;-80
2023/02/15 05:03:08;;;;;;;22.75;9.65;;;;;;;;;;5034958;28;20141;-80
2023/02/15 05:05:34;;;;;;;29.52;11.00;;;;;;;;;;5035486;28;20525;-81
2023/02/15 05:08:01;;;;;;;24.50;10.15;;;;;;;;;;5016075;28;20057;-80
2023/02/15 05:10:27;;;;;;;22.73;9.70;;;;;;;;;;5034592;28;20143;-79
2023/02/15 05:12:54;;;;;;;26.38;10.85;;;;;;;;;;5036289;28;20045;-81
2023/02/15 05:15:20;;;;;;;28.20;10.40;;;;;;;;;;5024553;28;20137;-79
2023/02/15 05:17:47;;;;;;;24.25;10.05;;;;;;;;;;5027344;28;20050;-80
2023/02/15 05:20:13;;;;;;;22.52;10.07;;;;;;;;;;5034194;28;20049;-83
2023/02/15 05:22:40;;;;;;;24.05;9.88;;;;;;;;;;5034750;28;20092;-77
2023/02/15 05:30:39;;;;;;;20.33;8.93;;;;;;;;;;5036023;28;20136;-80
2023/02/15 05:33:09;;;;;;;24.00;10.18;;;;;;;;;;5034206;28;20060;-79
2023/02/15 05:35:35;;;;;;;29.10;11.25;;;;;;;;;;5034687;28;20041;-78
2023/02/15 05:38:01;;;;;;;28.63;12.10;;;;;;;;;;5034209;28;20136;-79
2023/02/15 05:40:28;;;;;;;30.45;12.40;;;;;;;;;;5035421;28;20053;-79
2023/02/15 05:42:55;;;;;;;24.40;10.82;;;;;;;;;;5033248;28;20055;-78
2023/02/15 05:45:22;;;;;;;24.88;10.38;;;;;;;;;;5033460;28;20053;-79
2023/02/15 05:47:48;;;;;;;28.15;11.85;;;;;;;;;;5035169;28;20451;-79
2023/02/15 05:50:14;;;;;;;30.35;11.90;;;;;;;;;;5029156;28;20045;-78
2023/02/15 05:52:41;;;;;;;24.05;11.38;;;;;;;;;;5032767;28;20056;-80
2023/02/15 05:55:08;;;;;;;24.05;9.43;;;;;;;;;;5034028;28;20067;-78
2023/02/15 05:57:35;;;;;;;24.17;10.75;;;;;;;;;;5034530;28;20077;-80
2023/02/15 06:00:04;;;;;;;26.35;10.80;;;;;;;;;;5016239;28;20053;-79
2023/02/15 06:02:34;;;;;;;19.52;9.57;;;;;;;;;;5034571;28;20045;-80
2023/02/15 06:05:00;;;;;;;21.77;10.35;;;;;;;;;;5033737;28;20049;-77
2023/02/15 06:07:27;;;;;;;24.52;10.30;;;;;;;;;;5036035;28;20041;-80
2023/02/15 06:09:54;;;;;;;23.73;10.15;;;;;;;;;;5036145;28;20045;-80
2023/02/15 06:12:20;;;;;;;24.10;9.57;;;;;;;;;;5038600;28;20101;-80
2023/02/15 06:14:47;;;;;;;22.02;10.32;;;;;;;;;;5027539;28;20053;-80
2023/02/15 06:17:13;;;;;;;23.27;9.68;;;;;;;;;;5037321;28;20141;-80
2023/02/15 06:19:39;;;;;;;25.45;9.88;;;;;;;;;;5033470;28;20050;-80
2023/02/15 06:22:06;;;;;;;22.73;9.68;;;;;;;;;;5033847;28;20049;-79
2023/02/15 06:24:32;;;;;;;22.13;9.90;;;;;;;;;;5033243;28;20064;-79
2023/02/15 06:27:00;;;;;;;24.00;9.88;;;;;;;;;;5032648;28;20068;-80
2023/02/15 06:29:26;;;;;;;23.70;10.25;;;;;;;;;;5037742;28;20053;-80
2023/02/15 06:31:53;;;;;;;21.40;9.88;;;;;;;;;;5037223;28;20046;-79
2023/02/15 06:34:19;;;;;;;21.92;9.73;;;;;;;;;;5034451;28;20041;-80
2023/02/15 06:36:46;;;;;;;19.92;8.95;;;;;;;;;;5036871;28;20053;-80
2023/02/15 06:39:12;;;;;;;18.65;8.57;;;;;;;;;;5035676;28;20065;-80
2023/02/15 06:41:38;;;;;;;22.15;9.98;;;;;;;;;;5036052;28;20084;-80
2023/02/15 06:44:05;;;;;;;25.52;10.73;;;;;;;;;;5032503;28;20096;-80
2023/02/15 06:46:31;;;;;;;35.55;12.18;;;;;;;;;;5037359;28;20125;-81
2023/02/15 06:48:58;;;;;;;32.63;12.30;;;;;;;;;;5035657;28;20055;-82
2023/02/15 06:51:24;;;;;;;32.35;12.27;;;;;;;;;;5033606;28;20109;-81
2023/02/15 06:53:51;;;;;;;29.73;12.60;;;;;;;;;;5014870;28;20046;-82
2023/02/15 06:56:17;;;;;;;38.83;12.98;;;;;;;;;;5032785;28;20424;-81
2023/02/15 06:58:45;;;;;;;30.15;12.23;;;;;;;;;;5013291;28;20050;-80
2023/02/15 07:01:12;;;;;;;26.75;12.02;;;;;;;;;;5031850;28;20061;-80
2023/02/15 07:03:39;;;;;;;32.97;12.10;;;;;;;;;;5038678;28;20061;-79
2023/02/15 07:06:08;;;;;;;27.98;12.35;;;;;;;;;;5034540;28;20077;-81
2023/02/15 07:08:35;;;;;;;29.42;10.95;;;;;;;;;;5029705;28;20516;-79
2023/02/15 07:13:46;;;;;;;29.27;12.05;;;;;;;;;;5030398;28;20049;-81
2023/02/15 07:16:13;;;;;;;24.67;10.15;;;;;;;;;;5028277;28;20061;-79
2023/02/15 07:18:40;;;;;;;24.58;10.20;;;;;;;;;;5029695;28;20049;-79
2023/02/15 07:21:09;;;;;;;27.70;11.57;;;;;;;;;;5012896;28;20049;-79
2023/02/15 07:23:36;;;;;;;26.75;10.48;;;;;;;;;;5012788;28;20054;-79
2023/02/15 07:26:03;;;;;;;25.55;10.80;;;;;;;;;;5029346;28;20053;-80
2023/02/15 07:28:29;;;;;;;20.13;8.77;;;;;;;;;;5028462;28;20122;-81
2023/02/15 07:30:57;;;;;;;20.98;9.52;;;;;;;;;;5010873;28;20089;-80
2023/02/15 07:33:24;;;;;;;22.58;9.32;;;;;;;;;;5029596;28;20045;-79
2023/02/15 07:35:51;;;;;;;23.65;10.30;;;;;;;;;;5011919;28;20817;-80
2023/02/15 07:38:18;;;;;;;24.05;9.88;;;;;;;;;;5011478;28;20132;-79
2023/02/15 07:40:44;;;;;;;23.63;10.10;;;;;;;;;;5031373;28;20053;-79
2023/02/15 07:43:11;;;;;;;25.52;9.88;;;;;;;;;;5016243;28;20041;-80
2023/02/15 07:45:38;;;;;;;24.10;9.98;;;;;;;;;;5015913;28;20065;-80
2023/02/15 07:48:05;;;;;;;24.00;10.45;;;;;;;;;;5032158;28;20081;-79
2023/02/15 07:50:32;;;;;;;23.23;10.77;;;;;;;;;;5016094;28;20064;-80
2023/02/15 07:52:58;;;;;;;25.02;10.95;;;;;;;;;;5033403;28;20079;-79
2023/02/15 07:55:25;;;;;;;29.88;11.00;;;;;;;;;;5033614;28;20049;-80
2023/02/15 07:57:53;;;;;;;25.77;11.00;;;;;;;;;;5033870;28;20049;-80
2023/02/15 08:00:24;;;;;;;28.38;11.80;;;;;;;;;;5034312;28;20075;-79
2023/02/15 08:03:12;;;;;;;26.33;11.77;;;;;;;;;;5033529;28;20061;-79
2023/02/15 08:05:40;;;;;;;25.00;11.30;;;;;;;;;;5032616;28;20054;-79
2023/02/15 08:08:07;;;;;;;21.70;10.55;;;;;;;;;;5032737;28;20073;-81
2023/02/15 08:13:20;;;;;;;21.42;10.18;;;;;;;;;;5033961;28;20564;-82
2023/02/15 08:15:49;;;;;;;26.65;12.88;;;;;;;;;;5033976;28;20113;-81
2023/02/15 08:18:16;;;;;;;34.28;15.57;;;;;;;;;;5032742;28;20052;-80
2023/02/15 08:20:42;;;;;;;28.95;11.82;;;;;;;;;;5036796;28;20049;-80
2023/02/15 08:23:09;;;;;;;23.58;10.63;;;;;;;;;;5037287;28;20057;-81
2023/02/15 08:25:35;;;;;;;19.00;8.15;;;;;;;;;;5034371;28;20541;-80
2023/02/15 08:28:02;;;;;;;17.30;7.90;;;;;;;;;;5032433;28;20073;-81
2023/02/15 08:30:28;;;;;;;15.88;7.50;;;;;;;;;;5032133;28;20068;-81
2023/02/15 08:32:55;;;;;;;16.83;7.55;;;;;;;;;;5033202;28;20047;-81
2023/02/15 08:35:21;;;;;;;17.42;7.32;;;;;;;;;;5033316;28;20042;-81
2023/02/15 08:37:47;;;;;;;16.85;8.15;;;;;;;;;;5037551;28;20136;-80
2023/02/15 08:40:14;;;;;;;19.88;8.20;;;;;;;;;;5032431;28;20068;-81
2023/02/15 08:42:40;;;;;;;21.48;9.43;;;;;;;;;;5033223;28;20069;-81
2023/02/15 08:45:07;;;;;;;18.98;8.63;;;;;;;;;;5032921;28;20063;-82
2023/02/15 08:47:33;;;;;;;19.15;8.70;;;;;;;;;;5031991;28;20073;-81
2023/02/15 08:50:00;;;;;;;18.48;7.72;;;;;;;;;;5031589;28;20050;-79
2023/02/15 08:52:26;;;;;;;18.05;7.85;;;;;;;;;;5031278;28;20144;-80
2023/02/15 08:54:53;;;;;;;17.75;8.63;;;;;;;;;;5032673;28;20045;-81
2023/02/15 08:57:20;;;;;;;17.50;8.25;;;;;;;;;;5015143;28;20063;-81
2023/02/15 08:59:46;;;;;;;19.25;9.60;;;;;;;;;;5014164;28;20056;-80
2023/02/15 09:02:12;;;;;;;21.88;9.93;;;;;;;;;;5031047;28;20128;-81
2023/02/15 09:04:39;;;;;;;20.20;9.30;;;;;;;;;;5032058;28;20179;-82
2023/02/15 09:07:08;;;;;;;20.80;9.98;;;;;;;;;;5013828;28;20683;-82
2023/02/15 09:09:34;;;;;;;17.35;7.75;;;;;;;;;;5031394;28;20080;-80
2023/02/15 09:12:01;;;;;;;14.98;6.10;;;;;;;;;;5014847;28;20505;-80
2023/02/15 09:14:27;;;;;;;13.27;6.25;;;;;;;;;;5015216;28;20052;-82
2023/02/15 09:16:54;;;;;;;15.75;6.15;;;;;;;;;;5031636;28;20111;-82
2023/02/15 09:19:21;;;;;;;13.73;5.57;;;;;;;;;;5031394;28;20069;-82
2023/02/15 09:21:48;;;;;;;12.52;5.70;;;;;;;;;;5012763;28;20049;-81
2023/02/15 09:24:15;;;;;;;14.70;6.10;;;;;;;;;;5013090;28;20108;-80
2023/02/15 09:26:45;;;;;;;16.15;6.60;;;;;;;;;;5031452;28;20093;-81
2023/02/15 09:29:12;;;;;;;16.67;6.18;;;;;;;;;;5032968;28;20065;-81
2023/02/15 09:31:41;;;;;;;17.95;6.45;;;;;;;;;;5013725;28;20056;-82
2023/02/15 09:34:08;;;;;;;17.92;5.95;;;;;;;;;;5009057;28;20057;-83
2023/02/15 09:36:35;;;;;;;12.05;5.50;;;;;;;;;;4994662;28;20061;-84
2023/02/15 09:39:05;;;;;;;17.17;5.35;;;;;;;;;;5032732;28;20046;-83
2023/02/15 09:41:32;;;;;;;11.55;5.65;;;;;;;;;;5016707;28;20418;-80
2023/02/15 09:43:58;;;;;;;15.80;5.00;;;;;;;;;;5033949;28;20049;-82
2023/02/15 09:46:33;;;;;;;14.93;5.55;;;;;;;;;;5032811;28;20052;-83
2023/02/15 09:49:26;;;;;;;10.70;4.88;;;;;;;;;;5014504;28;20113;-82
2023/02/15 09:52:02;;;;;;;9.82;4.45;;;;;;;;;;5002176;28;20152;-84
2023/02/15 09:54:31;;;;;;;10.85;4.10;;;;;;;;;;5013992;28;20133;-81
2023/02/15 09:57:02;;;;;;;13.20;4.63;;;;;;;;;;5031663;28;20137;-82
2023/02/15 09:59:28;;;;;;;9.13;4.40;;;;;;;;;;5031524;28;20053;-81
2023/02/15 10:01:57;;;;;;;11.70;4.70;;;;;;;;;;5031510;28;20073;-82
2023/02/15 10:04:32;;;;;;;14.55;4.72;;;;;;;;;;5030330;28;20045;-82
2023/02/15 10:07:06;;;;;;;9.97;4.10;;;;;;;;;;5031751;28;20053;-83
2023/02/15 10:09:49;;;;;;;10.52;3.70;;;;;;;;;;5034161;28;20053;-79
2023/02/15 10:12:25;;;;;;;8.60;2.92;;;;;;;;;;5040370;28;20052;-81
2023/02/15 10:14:51;;;;;;;;;;;;;;;;;;5044482;28;20040;-81
2023/02/15 10:17:24;;;;;;;4.45;2.22;;;;;;;;;;5039138;28;19992;-79
2023/02/15 10:19:50;;;;;;;4.85;2.42;;;;;;;;;;5036581;28;20073;-79
2023/02/15 10:22:18;;;;;;;5.40;2.30;;;;;;;;;;5038891;28;20430;-82
2023/02/15 10:24:44;;;;;;;4.82;2.38;;;;;;;;;;5039807;28;20113;-81
2023/02/15 10:27:21;;;;;;;3.78;1.80;;;;;;;;;;5040019;28;20045;-82
2023/02/15 10:29:48;;;;;;;7.10;2.47;;;;;;;;;;5038580;28;20053;-80
2023/02/15 10:32:23;;;;;;;5.90;2.35;;;;;;;;;;5019514;28;20052;-79
2023/02/15 10:35:19;;;;;;;7.50;2.43;;;;;;;;;;5017161;28;20068;-79
2023/02/15 10:37:53;;;;;;;9.88;2.70;;;;;;;;;;4962857;28;20130;-79
2023/02/15 10:40:38;;;;;;;7.43;2.30;;;;;;;;;;5034754;28;20053;-80
2023/02/15 10:43:06;;;;;;;4.25;1.98;;;;;;;;;;5017404;28;20045;-82
2023/02/15 10:45:48;;;;;;;6.45;1.90;;;;;;;;;;5027062;28;20120;-81
2023/02/15 10:48:20;;;;;;;7.32;1.90;;;;;;;;;;5009546;28;20049;-82
2023/02/15 10:50:51;;;;;;;5.18;1.73;;;;;;;;;;5011899;28;20041;-83
2023/02/15 10:53:24;;;;;;;2.90;1.70;;;;;;;;;;5026733;28;20132;-84
2023/02/15 10:55:55;;;;;;;3.92;1.67;;;;;;;;;;4996052;28;20084;-83
2023/02/15 10:58:36;;;;;;;4.10;2.17;;;;;;;;;;5027341;28;20051;-82
2023/02/15 11:01:26;;;;;;;6.53;2.50;;;;;;;;;;5027803;28;20069;-82
2023/02/15 11:03:59;;;;;;;15.57;2.50;;;;;;;;;;5014985;28;20699;-81
2023/02/15 11:06:26;;;;;;;7.43;2.67;;;;;;;;;;5011449;28;20047;-82
2023/02/15 11:08:59;;;;;;;5.40;2.47;;;;;;;;;;5028752;28;20041;-82
2023/02/15 11:11:25;;;;;;;12.45;2.58;;;;;;;;;;5029275;28;20141;-82
2023/02/15 11:13:56;;;;;;;12.20;2.83;;;;;;;;;;5011876;28;20041;-82
2023/02/15 11:16:24;;;;;;;10.18;2.92;;;;;;;;;;5028168;28;20647;-82
2023/02/15 11:18:56;;;;;;;13.13;2.30;;;;;;;;;;5028562;28;20049;-81
2023/02/15 11:21:24;;;;;;;7.43;2.53;;;;;;;;;;5033756;28;20049;-82
2023/02/15 11:23:51;;;;;;;7.18;2.30;;;;;;;;;;5031127;28;20049;-81
2023/02/15 11:26:37;;;;;;;6.30;2.42;;;;;;;;;;5014502;28;20042;-81
2023/02/15 11:29:12;;;;;;;6.03;2.63;;;;;;;;;;5013844;28;20041;-82
2023/02/15 11:31:46;;;;;;;4.20;2.50;;;;;;;;;;5029717;28;20045;-78
2023/02/15 11:34:20;;;;;;;3.30;2.30;;;;;;;;;;5012418;28;20088;-80
2023/02/15 11:36:47;;;;;;;8.30;3.35;;;;;;;;;;5012110;28;20056;-80
2023/02/15 11:39:15;;;;;;;4.68;2.60;;;;;;;;;;5011152;28;20054;-79
2023/02/15 11:41:46;;;;;;;6.53;2.42;;;;;;;;;;5030139;28;20204;-79
2023/02/15 11:44:12;;;;;;;6.47;2.53;;;;;;;;;;5031628;28;20091;-79
2023/02/15 11:46:39;;;;;;;6.72;2.50;;;;;;;;;;5030348;28;20052;-81
2023/02/15 11:49:27;;;;;;;5.57;2.70;;;;;;;;;;5012376;28;20581;-80
2023/02/15 11:51:55;;;;;;;3.30;2.30;;;;;;;;;;5030096;28;20151;-80
2023/02/15 11:54:24;;;;;;;9.07;2.47;;;;;;;;;;5030504;28;20053;-81
2023/02/15 11:56:50;;;;;;;5.60;2.78;;;;;;;;;;5030382;28;20045;-80
2023/02/15 11:59:21;;;;;;;4.55;2.63;;;;;;;;;;5013405;28;20045;-80
2023/02/15 12:01:47;;;;;;;6.32;2.70;;;;;;;;;;5012734;28;20481;-81
2023/02/15 12:04:14;;;;;;;4.00;2.50;;;;;;;;;;5015187;28;20568;-79
2023/02/15 12:06:49;;;;;;;3.75;2.53;;;;;;;;;;5023061;28;20056;-79
2023/02/15 12:09:34;;;;;;;5.70;2.40;;;;;;;;;;5039545;28;20088;-79
2023/02/15 12:12:19;;;;;;;4.20;2.22;;;;;;;;;;5024427;28;20054;-81
2023/02/15 12:14:48;;;;;;;3.67;2.20;;;;;;;;;;5031891;28;20049;-79
2023/02/15 12:17:15;;;;;;;5.15;2.10;;;;;;;;;;5036523;28;20077;-79
2023/02/15 12:19:43;;;;;;;3.75;1.88;;;;;;;;;;5038080;28;20046;-79
2023/02/15 12:22:19;;;;;;;3.95;1.92;;;;;;;;;;5021557;28;20168;-78
2023/02/15 12:24:47;;;;;;;3.50;1.70;;;;;;;;;;5039305;28;20046;-79
2023/02/15 12:27:16;;;;;;;3.60;1.70;;;;;;;;;;5040821;28;20052;-78
2023/02/15 12:29:45;;;;;;;4.00;1.80;;;;;;;;;;5034912;28;20053;-78
2023/02/15 12:32:19;;;;;;;2.25;1.40;;;;;;;;;;5033376;28;20082;-78
2023/02/15 12:34:47;;;;;;;2.88;1.50;;;;;;;;;;5035668;28;20563;-79
2023/02/15 12:37:21;;;;;;;4.68;1.30;;;;;;;;;;5036683;28;20045;-79
2023/02/15 12:39:53;;;;;;;5.10;1.58;;;;;;;;;;5034500;28;20055;-80
2023/02/15 12:42:21;;;;;;;4.05;1.67;;;;;;;;;;5018840;28;20092;-79
2023/02/15 12:44:57;;;;;;;3.33;1.63;;;;;;;;;;5019275;28;20129;-78
2023/02/15 12:47:26;;;;;;;5.63;1.33;;;;;;;;;;5034946;28;20053;-78
2023/02/15 12:50:07;;;;;;;2.05;1.48;;;;;;;;;;5035573;28;20049;-79
2023/02/15 12:52:38;;;;;;;3.00;1.48;;;;;;;;;;5036352;28;20723;-78
2023/02/15 12:55:18;;;;;;;5.90;1.50;;;;;;;;;;5036411;28;20127;-78
2023/02/15 12:57:47;;;;;;;3.28;1.40;;;;;;;;;;5033846;28;20049;-79
2023/02/15 13:00:19;;;;;;;2.40;1.30;;;;;;;;;;5036616;28;20057;-79
2023/02/15 13:02:51;;;;;;;4.72;1.50;;;;;;;;;;5036527;28;20045;-79
2023/02/15 13:05:23;;;;;;;2.70;1.50;;;;;;;;;;5035007;28;20500;-79
2023/02/15 13:07:51;;;;;;;5.53;1.52;;;;;;;;;;5033225;28;20056;-81
2023/02/15 13:10:22;;;;;;;2.30;1.30;;;;;;;;;;5018940;28;20045;-78
2023/02/15 13:12:53;;;;;;;3.38;1.60;;;;;;;;;;5038188;28;20053;-79
2023/02/15 13:15:29;;;;;;;2.28;1.30;;;;;;;;;;5037331;28;20065;-78
2023/02/15 13:17:57;;;;;;;2.47;1.52;;;;;;;;;;5036769;28;20084;-78
2023/02/15 13:20:26;;;;;;;2.30;1.33;;;;;;;;;;5036853;28;20533;-81
2023/02/15 13:23:01;;;;;;;2.08;1.38;;;;;;;;;;5036588;28;20045;-80
2023/02/15 13:25:30;;;;;;;2.25;1.20;;;;;;;;;;5035434;28;20052;-79
2023/02/15 13:28:04;;;;;;;2.80;1.38;;;;;;;;;;5033508;28;20060;-78
2023/02/15 13:30:34;;;;;;;2.90;1.58;;;;;;;;;;5034494;28;20042;-80
2023/02/15 13:33:33;;;;;;;2.03;1.38;;;;;;;;;;5034283;28;20049;-79
2023/02/15 13:36:20;;;;;;;2.95;1.70;;;;;;;;;;5001350;28;20108;-80
2023/02/15 13:38:46;;;;;;;3.55;1.75;;;;;;;;;;5032932;28;20057;-78
2023/02/15 13:41:15;;;;;;;3.67;1.70;;;;;;;;;;5016297;28;20662;-79
2023/02/15 13:43:51;;;;;;;4.13;1.25;;;;;;;;;;5016566;28;20077;-79
2023/02/15 13:46:17;;;;;;;;;;;;;;;;;;5033572;28;20045;-79
2023/02/15 13:48:48;;;;;;;2.53;1.25;;;;;;;;;;5016078;28;19920;-77
2023/02/15 13:51:22;;;;;;;1.98;1.23;;;;;;;;;;5033252;28;20050;-77
2023/02/15 13:53:51;;;;;;;2.55;1.17;;;;;;;;;;5032961;28;20072;-78
2023/02/15 13:56:18;;;;;;;2.35;1.48;;;;;;;;;;5015622;28;20056;-78
2023/02/15 13:58:47;;;;;;;4.50;1.52;;;;;;;;;;5032937;28;20057;-80
2023/02/15 14:01:22;;;;;;;2.03;1.10;;;;;;;;;;5033545;28;20060;-80
2023/02/15 14:03:49;;;;;;;2.55;1.27;;;;;;;;;;5033495;28;20054;-79
2023/02/15 14:06:34;;;;;;;3.78;1.30;;;;;;;;;;5032254;28;20149;-78
2023/02/15 14:09:06;;;;;;;2.40;1.50;;;;;;;;;;5032283;28;20080;-79
2023/02/15 14:11:44;;;;;;;6.15;1.30;;;;;;;;;;5034335;28;20060;-80
2023/02/15 14:14:19;;;;;;;3.72;1.50;;;;;;;;;;5034924;28;20047;-79
2023/02/15 14:16:46;;;;;;;5.55;1.60;;;;;;;;;;5022257;28;20045;-78
2023/02/15 14:19:31;;;;;;;4.38;1.35;;;;;;;;;;5028704;28;20060;-79
2023/02/15 14:22:08;;;;;;;2.22;1.30;;;;;;;;;;5030743;28;20064;-78
2023/02/15 14:24:44;;;;;;;3.70;1.50;;;;;;;;;;5004736;28;20045;-78
2023/02/15 14:27:10;;;;;;;2.25;1.40;;;;;;;;;;5032421;28;20045;-80
2023/02/15 14:29:37;;;;;;;2.15;1.10;;;;;;;;;;5032260;28;20045;-79
2023/02/15 14:32:12;;;;;;;2.00;1.20;;;;;;;;;;5032155;28;20053;-80
2023/02/15 14:34:44;;;;;;;4.17;1.20;;;;;;;;;;5031142;28;20053;-79
2023/02/15 14:37:11;;;;;;;2.55;1.30;;;;;;;;;;5032308;28;20300;-78
2023/02/15 14:42:41;;;;;;;1.77;0.93;;;;;;;;;;5033275;28;20041;-80
2023/02/15 14:45:13;;;;;;;2.95;1.25;;;;;;;;;;5015060;28;20049;-80
2023/02/15 14:47:43;;;;;;;2.08;1.00;;;;;;;;;;5028451;28;20053;-79
2023/02/15 14:50:28;;;;;;;2.22;1.20;;;;;;;;;;5029536;28;20042;-80
2023/02/15 14:53:14;;;;;;;1.83;1.10;;;;;;;;;;5033475;28;20045;-81
2023/02/15 14:55:40;;;;;;;3.47;1.10;;;;;;;;;;5032628;28;20089;-80
2023/02/15 14:58:12;;;;;;;3.05;0.98;;;;;;;;;;5032038;28;20129;-80
2023/02/15 15:00:42;;;;;;;3.28;1.20;;;;;;;;;;5014524;28;20049;-81
2023/02/15 15:03:19;;;;;;;3.17;1.15;;;;;;;;;;5032277;28;20048;-80
2023/02/15 15:05:51;;;;;;;3.58;0.90;;;;;;;;;;5032581;28;20068;-79
2023/02/15 15:08:24;;;;;;;2.20;0.70;;;;;;;;;;5014067;28;20056;-78
2023/02/15 15:10:50;;;;;;;3.58;0.90;;;;;;;;;;5013148;28;20046;-79
2023/02/15 15:13:37;;;;;;;1.23;0.73;;;;;;;;;;5012540;28;20045;-79
2023/02/15 15:16:22;;;;;;;2.05;0.75;;;;;;;;;;5030899;28;20045;-79